sensor_id;sensor_type;location;lat;lon;timestamp;pressure;altitude;pressure_sealevel;temperature;humidity
64115;BME280;62188;35.640;139.748;2022-08-21T00:00:45;100450.44;;;30.08;46.78
64115;BME280;62188;35.640;139.748;2022-08-21T00:03:11;100447.10;;;30.20;46.33
64115;BME280;62188;35.640;139.748;2022-08-21T00:05:39;100446.99;;;30.31;46.39
64115;BME280;62188;35.640;139.748;2022-08-21T00:08:01;100442.53;;;30.39;46.34
64115;BME280;62188;35.640;139.748;2022-08-21T00:10:26;100441.20;;;30.49;45.89
64115;BME280;62188;35.640;139.748;2022-08-21T00:12:52;100440.51;;;30.26;46.02
64115;BME280;62188;35.640;139.748;2022-08-21T00:15:20;100441.87;;;30.50;46.02
64115;BME280;62188;35.640;139.748;2022-08-21T00:17:42;100446.73;;;30.28;46.00
64115;BME280;62188;35.640;139.748;2022-08-21T00:20:10;100450.78;;;30.52;46.00
64115;BME280;62188;35.640;139.748;2022-08-21T00:22:33;100453.03;;;30.45;45.86
64115;BME280;62188;35.640;139.748;2022-08-21T00:24:58;100452.44;;;30.49;46.05
64115;BME280;62188;35.640;139.748;2022-08-21T00:27:23;100456.88;;;30.27;45.86
64115;BME280;62188;35.640;139.748;2022-08-21T00:29:49;100461.50;;;30.57;45.82
64115;BME280;62188;35.640;139.748;2022-08-21T00:32:20;100466.30;;;30.60;45.82
64115;BME280;62188;35.640;139.748;2022-08-21T00:34:39;100466.18;;;30.64;45.69
64115;BME280;62188;35.640;139.748;2022-08-21T00:37:05;100460.28;;;30.60;45.74
64115;BME280;62188;35.640;139.748;2022-08-21T00:39:30;100456.59;;;30.72;45.45
64115;BME280;62188;35.640;139.748;2022-08-21T00:41:55;100455.69;;;30.73;45.51
64115;BME280;62188;35.640;139.748;2022-08-21T00:44:20;100457.43;;;30.56;45.90
64115;BME280;62188;35.640;139.748;2022-08-21T00:46:46;100461.95;;;30.54;45.93
64115;BME280;62188;35.640;139.748;2022-08-21T00:49:12;100466.01;;;30.83;45.51
64115;BME280;62188;35.640;139.748;2022-08-21T00:51:40;100462.21;;;30.41;45.39
64115;BME280;62188;35.640;139.748;2022-08-21T00:54:03;100455.53;;;30.91;45.49
64115;BME280;62188;35.640;139.748;2022-08-21T00:56:27;100449.51;;;30.54;45.35
64115;BME280;62188;35.640;139.748;2022-08-21T00:58:52;100450.01;;;30.79;45.30
64115;BME280;62188;35.640;139.748;2022-08-21T01:01:18;100455.36;;;30.60;45.11
64115;BME280;62188;35.640;139.748;2022-08-21T01:03:43;100462.14;;;30.65;44.56
64115;BME280;62188;35.640;139.748;2022-08-21T01:06:09;100464.44;;;30.82;44.81
64115;BME280;62188;35.640;139.748;2022-08-21T01:08:34;100464.92;;;30.51;45.06
64115;BME280;62188;35.640;139.748;2022-08-21T01:10:59;100466.85;;;31.04;44.82
64115;BME280;62188;35.640;139.748;2022-08-21T01:13:24;100465.23;;;30.72;44.52
64115;BME280;62188;35.640;139.748;2022-08-21T01:15:52;100466.83;;;30.39;44.54
64115;BME280;62188;35.640;139.748;2022-08-21T01:18:16;100462.57;;;30.71;45.04
64115;BME280;62188;35.640;139.748;2022-08-21T01:20:44;100456.89;;;30.71;45.44
64115;BME280;62188;35.640;139.748;2022-08-21T01:23:06;100451.08;;;30.44;45.71
64115;BME280;62188;35.640;139.748;2022-08-21T01:25:30;100444.04;;;30.90;45.48
64115;BME280;62188;35.640;139.748;2022-08-21T01:27:56;100438.51;;;30.72;45.56
64115;BME280;62188;35.640;139.748;2022-08-21T01:30:24;100435.45;;;30.55;45.28
64115;BME280;62188;35.640;139.748;2022-08-21T01:32:47;100434.52;;;30.55;45.21
64115;BME280;62188;35.640;139.748;2022-08-21T01:35:15;100434.09;;;30.38;45.30
64115;BME280;62188;35.640;139.748;2022-08-21T01:37:37;100432.28;;;30.48;45.56
64115;BME280;62188;35.640;139.748;2022-08-21T01:40:03;100429.84;;;30.69;45.24
64115;BME280;62188;35.640;139.748;2022-08-21T01:42:28;100434.36;;;30.68;45.08
64115;BME280;62188;35.640;139.748;2022-08-21T01:44:53;100445.57;;;30.17;45.12
64115;BME280;62188;35.640;139.748;2022-08-21T01:47:18;100452.76;;;30.13;45.56
64115;BME280;62188;35.640;139.748;2022-08-21T01:49:44;100458.97;;;30.62;45.09
64115;BME280;62188;35.640;139.748;2022-08-21T01:52:09;100456.90;;;30.61;45.42
64115;BME280;62188;35.640;139.748;2022-08-21T01:54:34;100456.57;;;30.12;45.28
64115;BME280;62188;35.640;139.748;2022-08-21T01:57:00;100458.29;;;30.41;45.27
64115;BME280;62188;35.640;139.748;2022-08-21T01:59:26;100459.06;;;30.54;45.05
64115;BME280;62188;35.640;139.748;2022-08-21T02:01:50;100456.50;;;30.52;44.79
64115;BME280;62188;35.640;139.748;2022-08-21T02:04:15;100456.32;;;30.89;44.56
64115;BME280;62188;35.640;139.748;2022-08-21T02:06:40;100451.59;;;30.83;44.75
64115;BME280;62188;35.640;139.748;2022-08-21T02:09:07;100450.64;;;30.84;44.77
64115;BME280;62188;35.640;139.748;2022-08-21T02:11:31;100442.50;;;31.07;44.60
64115;BME280;62188;35.640;139.748;2022-08-21T02:13:57;100444.79;;;31.28;43.86
64115;BME280;62188;35.640;139.748;2022-08-21T02:16:22;100444.27;;;31.44;43.75
64115;BME280;62188;35.640;139.748;2022-08-21T02:18:47;100448.82;;;31.56;43.56
64115;BME280;62188;35.640;139.748;2022-08-21T02:21:12;100446.79;;;31.52;43.57
64115;BME280;62188;35.640;139.748;2022-08-21T02:23:38;100442.95;;;31.57;44.20
64115;BME280;62188;35.640;139.748;2022-08-21T02:26:07;100444.94;;;31.59;43.74
64115;BME280;62188;35.640;139.748;2022-08-21T02:28:29;100442.09;;;31.31;43.71
64115;BME280;62188;35.640;139.748;2022-08-21T02:30:55;100441.83;;;31.27;43.64
64115;BME280;62188;35.640;139.748;2022-08-21T02:33:20;100442.48;;;31.22;43.78
64115;BME280;62188;35.640;139.748;2022-08-21T02:35:47;100442.81;;;31.24;44.10
64115;BME280;62188;35.640;139.748;2022-08-21T02:38:12;100440.34;;;31.15;43.89
64115;BME280;62188;35.640;139.748;2022-08-21T02:40:39;100435.42;;;31.27;44.18
64115;BME280;62188;35.640;139.748;2022-08-21T02:43:02;100431.72;;;31.12;44.39
64115;BME280;62188;35.640;139.748;2022-08-21T02:45:26;100431.26;;;30.99;44.34
64115;BME280;62188;35.640;139.748;2022-08-21T02:47:54;100430.27;;;30.90;44.39
64115;BME280;62188;35.640;139.748;2022-08-21T02:50:22;100425.85;;;30.80;44.58
64115;BME280;62188;35.640;139.748;2022-08-21T02:52:43;100421.22;;;31.04;44.83
64115;BME280;62188;35.640;139.748;2022-08-21T02:55:09;100420.90;;;31.23;44.96
64115;BME280;62188;35.640;139.748;2022-08-21T02:57:34;100412.83;;;30.58;45.02
64115;BME280;62188;35.640;139.748;2022-08-21T03:00:00;100411.80;;;30.53;45.19
64115;BME280;62188;35.640;139.748;2022-08-21T03:02:25;100412.52;;;30.52;45.34
64115;BME280;62188;35.640;139.748;2022-08-21T03:04:50;100412.61;;;30.84;45.33
64115;BME280;62188;35.640;139.748;2022-08-21T03:07:16;100415.07;;;30.86;45.43
64115;BME280;62188;35.640;139.748;2022-08-21T03:09:42;100411.08;;;30.63;45.47
64115;BME280;62188;35.640;139.748;2022-08-21T03:12:07;100414.23;;;30.60;45.67
64115;BME280;62188;35.640;139.748;2022-08-21T03:14:32;100415.29;;;30.73;45.77
64115;BME280;62188;35.640;139.748;2022-08-21T03:16:58;100424.11;;;30.47;45.91
64115;BME280;62188;35.640;139.748;2022-08-21T03:19:24;100421.87;;;30.49;46.13
64115;BME280;62188;35.640;139.748;2022-08-21T03:21:50;100422.71;;;30.38;46.28
64115;BME280;62188;35.640;139.748;2022-08-21T03:24:15;100426.42;;;30.73;46.51
64115;BME280;62188;35.640;139.748;2022-08-21T03:26:40;100424.46;;;30.67;46.68
64115;BME280;62188;35.640;139.748;2022-08-21T03:29:06;100426.49;;;30.42;46.65
64115;BME280;62188;35.640;139.748;2022-08-21T03:31:31;100428.38;;;30.44;46.34
64115;BME280;62188;35.640;139.748;2022-08-21T03:33:56;100432.68;;;30.79;46.44
64115;BME280;62188;35.640;139.748;2022-08-21T03:36:22;100435.33;;;30.78;46.15
64115;BME280;62188;35.640;139.748;2022-08-21T03:38:48;100437.39;;;30.63;46.16
64115;BME280;62188;35.640;139.748;2022-08-21T03:41:13;100437.59;;;30.68;46.32
64115;BME280;62188;35.640;139.748;2022-08-21T03:43:38;100437.71;;;30.35;46.13
64115;BME280;62188;35.640;139.748;2022-08-21T03:46:04;100438.43;;;30.96;45.70
64115;BME280;62188;35.640;139.748;2022-08-21T03:48:29;100435.42;;;30.68;45.57
64115;BME280;62188;35.640;139.748;2022-08-21T03:50:54;100437.61;;;30.98;45.03
64115;BME280;62188;35.640;139.748;2022-08-21T03:53:19;100437.71;;;30.81;44.72
64115;BME280;62188;35.640;139.748;2022-08-21T03:55:45;100434.63;;;30.95;44.52
64115;BME280;62188;35.640;139.748;2022-08-21T03:58:10;100432.99;;;31.07;44.40
64115;BME280;62188;35.640;139.748;2022-08-21T04:00:35;100433.10;;;31.14;44.16
64115;BME280;62188;35.640;139.748;2022-08-21T04:03:01;100430.26;;;31.06;44.04
64115;BME280;62188;35.640;139.748;2022-08-21T04:05:27;100425.82;;;31.26;43.81
64115;BME280;62188;35.640;139.748;2022-08-21T04:07:51;100423.11;;;31.38;43.80
64115;BME280;62188;35.640;139.748;2022-08-21T04:10:17;100421.85;;;31.19;43.45
64115;BME280;62188;35.640;139.748;2022-08-21T04:12:42;100419.81;;;31.23;43.64
64115;BME280;62188;35.640;139.748;2022-08-21T04:15:09;100422.20;;;31.55;43.64
64115;BME280;62188;35.640;139.748;2022-08-21T04:17:33;100425.55;;;31.58;43.41
64115;BME280;62188;35.640;139.748;2022-08-21T04:19:59;100429.52;;;31.73;43.22
64115;BME280;62188;35.640;139.748;2022-08-21T04:22:24;100431.03;;;31.86;43.16
64115;BME280;62188;35.640;139.748;2022-08-21T04:24:49;100431.51;;;31.74;42.96
64115;BME280;62188;35.640;139.748;2022-08-21T04:27:15;100433.62;;;31.64;42.98
64115;BME280;62188;35.640;139.748;2022-08-21T04:29:40;100433.09;;;31.57;43.10
64115;BME280;62188;35.640;139.748;2022-08-21T04:32:06;100431.27;;;31.66;42.99
64115;BME280;62188;35.640;139.748;2022-08-21T04:34:31;100431.02;;;31.40;43.02
64115;BME280;62188;35.640;139.748;2022-08-21T04:36:56;100428.69;;;31.56;43.09
64115;BME280;62188;35.640;139.748;2022-08-21T04:39:21;100424.68;;;31.55;43.12
64115;BME280;62188;35.640;139.748;2022-08-21T04:41:47;100424.08;;;31.65;43.32
64115;BME280;62188;35.640;139.748;2022-08-21T04:44:12;100422.61;;;31.76;43.56
64115;BME280;62188;35.640;139.748;2022-08-21T04:46:37;100418.34;;;31.56;43.66
64115;BME280;62188;35.640;139.748;2022-08-21T04:49:03;100419.29;;;31.56;43.86
64115;BME280;62188;35.640;139.748;2022-08-21T04:51:31;100421.93;;;31.52;44.13
64115;BME280;62188;35.640;139.748;2022-08-21T04:53:56;100421.09;;;31.41;43.85
64115;BME280;62188;35.640;139.748;2022-08-21T04:56:22;100420.45;;;31.13;43.37
64115;BME280;62188;35.640;139.748;2022-08-21T04:58:45;100415.14;;;31.33;42.59
64115;BME280;62188;35.640;139.748;2022-08-21T05:01:19;100413.42;;;31.53;42.62
64115;BME280;62188;35.640;139.748;2022-08-21T05:03:36;100409.84;;;31.52;42.57
64115;BME280;62188;35.640;139.748;2022-08-21T05:06:04;100409.94;;;31.58;42.41
64115;BME280;62188;35.640;139.748;2022-08-21T05:08:26;100410.62;;;31.33;42.17
64115;BME280;62188;35.640;139.748;2022-08-21T05:10:51;100409.41;;;31.44;42.01
64115;BME280;62188;35.640;139.748;2022-08-21T05:13:16;100409.34;;;31.17;41.74
64115;BME280;62188;35.640;139.748;2022-08-21T05:15:41;100407.18;;;31.30;41.60
64115;BME280;62188;35.640;139.748;2022-08-21T05:18:06;100406.81;;;31.26;41.67
64115;BME280;62188;35.640;139.748;2022-08-21T05:20:32;100411.04;;;31.35;41.70
64115;BME280;62188;35.640;139.748;2022-08-21T05:22:57;100412.50;;;31.45;41.77
64115;BME280;62188;35.640;139.748;2022-08-21T05:25:23;100414.06;;;31.50;41.59
64115;BME280;62188;35.640;139.748;2022-08-21T05:27:48;100413.35;;;31.49;41.57
64115;BME280;62188;35.640;139.748;2022-08-21T05:30:14;100418.00;;;31.44;41.20
64115;BME280;62188;35.640;139.748;2022-08-21T05:32:39;100422.20;;;31.10;41.42
64115;BME280;62188;35.640;139.748;2022-08-21T05:35:05;100424.14;;;31.49;41.13
64115;BME280;62188;35.640;139.748;2022-08-21T05:37:30;100423.65;;;31.16;41.27
64115;BME280;62188;35.640;139.748;2022-08-21T05:39:55;100422.07;;;31.09;41.46
64115;BME280;62188;35.640;139.748;2022-08-21T05:42:20;100419.68;;;30.85;41.33
64115;BME280;62188;35.640;139.748;2022-08-21T05:44:45;100417.44;;;31.10;41.51
64115;BME280;62188;35.640;139.748;2022-08-21T05:47:12;100417.94;;;31.12;41.31
64115;BME280;62188;35.640;139.748;2022-08-21T05:49:37;100418.82;;;31.09;41.27
64115;BME280;62188;35.640;139.748;2022-08-21T05:52:02;100415.92;;;31.17;41.35
64115;BME280;62188;35.640;139.748;2022-08-21T05:54:27;100413.14;;;31.16;41.14
64115;BME280;62188;35.640;139.748;2022-08-21T05:56:52;100410.15;;;30.94;41.29
64115;BME280;62188;35.640;139.748;2022-08-21T05:59:17;100405.13;;;31.64;41.04
64115;BME280;62188;35.640;139.748;2022-08-21T06:01:43;100407.08;;;31.11;41.08
64115;BME280;62188;35.640;139.748;2022-08-21T06:04:08;100403.87;;;31.18;41.16
64115;BME280;62188;35.640;139.748;2022-08-21T06:06:34;100404.43;;;31.25;41.16
64115;BME280;62188;35.640;139.748;2022-08-21T06:08:58;100409.43;;;31.34;41.14
64115;BME280;62188;35.640;139.748;2022-08-21T06:11:24;100409.73;;;31.07;41.08
64115;BME280;62188;35.640;139.748;2022-08-21T06:13:49;100409.80;;;31.41;41.13
64115;BME280;62188;35.640;139.748;2022-08-21T06:16:16;100409.38;;;31.54;41.14
64115;BME280;62188;35.640;139.748;2022-08-21T06:18:40;100406.80;;;31.58;40.83
64115;BME280;62188;35.640;139.748;2022-08-21T06:21:06;100407.14;;;31.35;40.77
64115;BME280;62188;35.640;139.748;2022-08-21T06:23:31;100404.81;;;31.60;40.77
64115;BME280;62188;35.640;139.748;2022-08-21T06:25:56;100402.43;;;31.63;40.74
64115;BME280;62188;35.640;139.748;2022-08-21T06:28:22;100402.50;;;31.44;40.67
64115;BME280;62188;35.640;139.748;2022-08-21T06:30:46;100401.84;;;31.50;40.80
64115;BME280;62188;35.640;139.748;2022-08-21T06:33:12;100399.82;;;31.77;40.57
64115;BME280;62188;35.640;139.748;2022-08-21T06:35:38;100400.21;;;31.72;40.63
64115;BME280;62188;35.640;139.748;2022-08-21T06:38:03;100405.90;;;31.68;40.63
64115;BME280;62188;35.640;139.748;2022-08-21T06:40:29;100404.05;;;31.58;40.89
64115;BME280;62188;35.640;139.748;2022-08-21T06:42:53;100402.80;;;31.35;40.81
64115;BME280;62188;35.640;139.748;2022-08-21T06:45:18;100401.30;;;31.46;40.68
64115;BME280;62188;35.640;139.748;2022-08-21T06:47:44;100406.93;;;31.36;40.76
64115;BME280;62188;35.640;139.748;2022-08-21T06:50:10;100407.99;;;31.32;41.00
64115;BME280;62188;35.640;139.748;2022-08-21T06:52:34;100407.57;;;31.29;41.00
64115;BME280;62188;35.640;139.748;2022-08-21T06:55:00;100407.02;;;31.20;41.01
64115;BME280;62188;35.640;139.748;2022-08-21T06:57:25;100406.93;;;31.17;41.19
64115;BME280;62188;35.640;139.748;2022-08-21T06:59:50;100409.49;;;31.23;41.31
64115;BME280;62188;35.640;139.748;2022-08-21T07:02:16;100412.07;;;31.21;41.27
64115;BME280;62188;35.640;139.748;2022-08-21T07:04:41;100414.65;;;31.21;41.36
64115;BME280;62188;35.640;139.748;2022-08-21T07:07:06;100414.70;;;31.30;41.24
64115;BME280;62188;35.640;139.748;2022-08-21T07:09:32;100415.45;;;31.28;41.32
64115;BME280;62188;35.640;139.748;2022-08-21T07:11:57;100416.15;;;31.79;41.42
64115;BME280;62188;35.640;139.748;2022-08-21T07:14:22;100416.91;;;31.22;41.43
64115;BME280;62188;35.640;139.748;2022-08-21T07:16:48;100415.89;;;31.15;41.59
64115;BME280;62188;35.640;139.748;2022-08-21T07:19:12;100416.35;;;31.04;41.75
64115;BME280;62188;35.640;139.748;2022-08-21T07:21:38;100413.02;;;30.96;41.87
64115;BME280;62188;35.640;139.748;2022-08-21T07:24:04;100411.62;;;30.91;42.00
64115;BME280;62188;35.640;139.748;2022-08-21T07:26:29;100413.52;;;30.90;42.18
64115;BME280;62188;35.640;139.748;2022-08-21T07:28:54;100414.87;;;30.93;42.35
64115;BME280;62188;35.640;139.748;2022-08-21T07:31:22;100416.76;;;31.00;42.33
64115;BME280;62188;35.640;139.748;2022-08-21T07:33:45;100415.34;;;31.02;42.27
64115;BME280;62188;35.640;139.748;2022-08-21T07:36:11;100417.54;;;30.98;42.26
64115;BME280;62188;35.640;139.748;2022-08-21T07:38:35;100417.30;;;31.01;42.43
64115;BME280;62188;35.640;139.748;2022-08-21T07:41:02;100415.21;;;31.04;42.49
64115;BME280;62188;35.640;139.748;2022-08-21T07:43:26;100415.00;;;31.04;42.50
64115;BME280;62188;35.640;139.748;2022-08-21T07:45:52;100420.26;;;31.10;42.52
64115;BME280;62188;35.640;139.748;2022-08-21T07:48:17;100423.93;;;31.11;42.39
64115;BME280;62188;35.640;139.748;2022-08-21T07:50:42;100428.84;;;31.09;42.58
64115;BME280;62188;35.640;139.748;2022-08-21T07:53:07;100431.46;;;31.13;42.53
64115;BME280;62188;35.640;139.748;2022-08-21T07:55:32;100434.66;;;31.17;42.57
64115;BME280;62188;35.640;139.748;2022-08-21T07:57:57;100439.68;;;30.96;42.66
64115;BME280;62188;35.640;139.748;2022-08-21T08:00:28;100442.14;;;31.14;42.66
64115;BME280;62188;35.640;139.748;2022-08-21T08:02:50;100446.63;;;31.12;42.67
64115;BME280;62188;35.640;139.748;2022-08-21T08:05:14;100447.62;;;30.98;42.78
64115;BME280;62188;35.640;139.748;2022-08-21T08:07:39;100448.79;;;30.95;42.83
64115;BME280;62188;35.640;139.748;2022-08-21T08:10:05;100450.98;;;30.93;42.89
64115;BME280;62188;35.640;139.748;2022-08-21T08:12:30;100451.33;;;31.12;42.97
64115;BME280;62188;35.640;139.748;2022-08-21T08:14:55;100452.28;;;30.90;43.20
64115;BME280;62188;35.640;139.748;2022-08-21T08:17:20;100453.38;;;30.88;43.19
64115;BME280;62188;35.640;139.748;2022-08-21T08:19:45;100456.91;;;30.93;43.13
64115;BME280;62188;35.640;139.748;2022-08-21T08:22:16;100458.26;;;30.97;43.23
64115;BME280;62188;35.640;139.748;2022-08-21T08:24:40;100462.42;;;30.95;43.26
64115;BME280;62188;35.640;139.748;2022-08-21T08:27:01;100468.82;;;30.73;43.07
64115;BME280;62188;35.640;139.748;2022-08-21T08:29:27;100471.75;;;30.97;43.15
64115;BME280;62188;35.640;139.748;2022-08-21T08:31:52;100475.54;;;30.95;43.12
64115;BME280;62188;35.640;139.748;2022-08-21T08:34:17;100480.17;;;30.84;43.30
64115;BME280;62188;35.640;139.748;2022-08-21T08:36:42;100487.02;;;30.80;43.47
64115;BME280;62188;35.640;139.748;2022-08-21T08:39:08;100488.86;;;30.78;43.53
64115;BME280;62188;35.640;139.748;2022-08-21T08:41:33;100495.48;;;30.76;43.58
64115;BME280;62188;35.640;139.748;2022-08-21T08:44:02;100498.66;;;30.67;43.52
64115;BME280;62188;35.640;139.748;2022-08-21T08:46:31;100500.95;;;30.87;43.58
64115;BME280;62188;35.640;139.748;2022-08-21T08:48:53;100504.71;;;30.65;43.53
64115;BME280;62188;35.640;139.748;2022-08-21T08:51:18;100507.18;;;30.55;43.60
64115;BME280;62188;35.640;139.748;2022-08-21T08:53:47;100504.03;;;30.75;43.72
64115;BME280;62188;35.640;139.748;2022-08-21T08:56:05;100505.60;;;30.90;43.67
64115;BME280;62188;35.640;139.748;2022-08-21T08:58:33;100507.17;;;30.56;43.63
64115;BME280;62188;35.640;139.748;2022-08-21T09:00:56;100505.77;;;30.32;43.59
64115;BME280;62188;35.640;139.748;2022-08-21T09:03:22;100503.80;;;30.71;43.69
64115;BME280;62188;35.640;139.748;2022-08-21T09:05:47;100505.25;;;30.25;43.81
64115;BME280;62188;35.640;139.748;2022-08-21T09:10:42;100512.48;;;30.83;43.73
64115;BME280;62188;35.640;139.748;2022-08-21T09:13:07;100517.48;;;30.28;43.87
64115;BME280;62188;35.640;139.748;2022-08-21T09:15:31;100519.63;;;30.34;43.86
64115;BME280;62188;35.640;139.748;2022-08-21T09:20:28;100522.70;;;30.30;43.95
64115;BME280;62188;35.640;139.748;2022-08-21T09:22:53;100528.75;;;30.31;43.85
64115;BME280;62188;35.640;139.748;2022-08-21T09:25:23;100531.20;;;30.37;43.78
64115;BME280;62188;35.640;139.748;2022-08-21T09:27:34;100536.08;;;30.35;43.86
64115;BME280;62188;35.640;139.748;2022-08-21T09:29:58;100539.70;;;30.57;43.76
64115;BME280;62188;35.640;139.748;2022-08-21T09:32:25;100546.25;;;30.60;43.60
64115;BME280;62188;35.640;139.748;2022-08-21T09:34:56;100547.77;;;30.62;43.61
64115;BME280;62188;35.640;139.748;2022-08-21T09:37:18;100545.22;;;30.34;43.64
64115;BME280;62188;35.640;139.748;2022-08-21T09:39:41;100548.59;;;30.60;43.57
64115;BME280;62188;35.640;139.748;2022-08-21T09:42:07;100552.56;;;30.80;43.69
64115;BME280;62188;35.640;139.748;2022-08-21T09:44:32;100556.20;;;30.37;43.74
64115;BME280;62188;35.640;139.748;2022-08-21T09:46:55;100561.87;;;30.35;43.73
64115;BME280;62188;35.640;139.748;2022-08-21T09:49:27;100567.36;;;30.35;43.83
64115;BME280;62188;35.640;139.748;2022-08-21T09:51:51;100575.62;;;30.59;43.83
64115;BME280;62188;35.640;139.748;2022-08-21T09:54:16;100576.39;;;30.40;43.84
64115;BME280;62188;35.640;139.748;2022-08-21T09:56:50;100581.12;;;30.86;43.84
64115;BME280;62188;35.640;139.748;2022-08-21T09:59:12;100582.38;;;30.63;43.80
64115;BME280;62188;35.640;139.748;2022-08-21T10:01:28;100590.50;;;30.35;43.84
64115;BME280;62188;35.640;139.748;2022-08-21T10:04:02;100591.53;;;30.37;43.87
64115;BME280;62188;35.640;139.748;2022-08-21T10:06:25;100597.29;;;30.84;43.73
64115;BME280;62188;35.640;139.748;2022-08-21T10:08:43;100602.76;;;30.34;43.93
64115;BME280;62188;35.640;139.748;2022-08-21T10:11:11;100607.15;;;30.67;44.11
64115;BME280;62188;35.640;139.748;2022-08-21T10:13:44;100606.40;;;30.92;43.84
64115;BME280;62188;35.640;139.748;2022-08-21T10:16:08;100604.97;;;30.90;43.72
64115;BME280;62188;35.640;139.748;2022-08-21T10:18:28;100601.55;;;30.53;43.95
64115;BME280;62188;35.640;139.748;2022-08-21T10:20:56;100603.07;;;30.46;43.84
64115;BME280;62188;35.640;139.748;2022-08-21T10:23:25;100600.93;;;30.38;43.94
64115;BME280;62188;35.640;139.748;2022-08-21T10:25:44;100598.91;;;30.24;43.93
64115;BME280;62188;35.640;139.748;2022-08-21T10:28:13;100599.53;;;30.54;43.92
64115;BME280;62188;35.640;139.748;2022-08-21T10:30:38;100599.68;;;30.74;44.01
64115;BME280;62188;35.640;139.748;2022-08-21T10:33:11;100599.01;;;30.52;44.03
64115;BME280;62188;35.640;139.748;2022-08-21T10:35:26;100599.38;;;30.71;44.12
64115;BME280;62188;35.640;139.748;2022-08-21T10:37:59;100601.53;;;30.26;44.01
64115;BME280;62188;35.640;139.748;2022-08-21T10:40:20;100604.50;;;30.22;44.09
64115;BME280;62188;35.640;139.748;2022-08-21T10:42:46;100604.36;;;30.66;44.08
64115;BME280;62188;35.640;139.748;2022-08-21T10:45:10;100601.22;;;30.64;44.09
64115;BME280;62188;35.640;139.748;2022-08-21T10:47:32;100596.40;;;30.52;43.99
64115;BME280;62188;35.640;139.748;2022-08-21T10:49:59;100598.06;;;30.24;44.12
64115;BME280;62188;35.640;139.748;2022-08-21T10:52:28;100605.12;;;30.49;43.95
64115;BME280;62188;35.640;139.748;2022-08-21T10:54:49;100610.28;;;30.51;43.98
64115;BME280;62188;35.640;139.748;2022-08-21T10:57:25;100612.26;;;30.58;43.96
64115;BME280;62188;35.640;139.748;2022-08-21T10:59:42;100609.54;;;30.57;43.68
64115;BME280;62188;35.640;139.748;2022-08-21T11:02:08;100604.73;;;30.46;43.69
64115;BME280;62188;35.640;139.748;2022-08-21T11:04:30;100608.99;;;30.47;43.63
64115;BME280;62188;35.640;139.748;2022-08-21T11:06:57;100614.66;;;30.50;43.71
64115;BME280;62188;35.640;139.748;2022-08-21T11:09:19;100620.38;;;30.51;43.61
64115;BME280;62188;35.640;139.748;2022-08-21T11:11:45;100628.58;;;30.30;43.44
64115;BME280;62188;35.640;139.748;2022-08-21T11:14:16;100631.09;;;30.26;43.54
64115;BME280;62188;35.640;139.748;2022-08-21T11:16:37;100629.44;;;30.04;43.67
64115;BME280;62188;35.640;139.748;2022-08-21T11:19:03;100634.15;;;30.49;43.61
64115;BME280;62188;35.640;139.748;2022-08-21T11:21:32;100637.31;;;30.25;43.53
64115;BME280;62188;35.640;139.748;2022-08-21T11:23:52;100634.92;;;30.02;43.43
64115;BME280;62188;35.640;139.748;2022-08-21T11:26:17;100632.64;;;30.50;43.17
64115;BME280;62188;35.640;139.748;2022-08-21T11:28:44;100633.73;;;30.24;42.91
64115;BME280;62188;35.640;139.748;2022-08-21T11:31:12;100637.75;;;30.30;42.95
64115;BME280;62188;35.640;139.748;2022-08-21T11:33:42;100640.28;;;30.34;43.00
64115;BME280;62188;35.640;139.748;2022-08-21T11:35:59;100646.86;;;30.35;43.22
64115;BME280;62188;35.640;139.748;2022-08-21T11:38:28;100649.90;;;30.57;43.39
64115;BME280;62188;35.640;139.748;2022-08-21T11:40:57;100652.10;;;30.58;43.06
64115;BME280;62188;35.640;139.748;2022-08-21T11:43:16;100650.87;;;30.27;43.00
64115;BME280;62188;35.640;139.748;2022-08-21T11:45:43;100652.67;;;30.21;43.04
64115;BME280;62188;35.640;139.748;2022-08-21T11:48:07;100657.19;;;30.47;43.10
64115;BME280;62188;35.640;139.748;2022-08-21T11:50:29;100658.62;;;30.41;43.34
64115;BME280;62188;35.640;139.748;2022-08-21T11:52:56;100656.04;;;30.37;43.41
64115;BME280;62188;35.640;139.748;2022-08-21T11:55:20;100654.56;;;30.28;43.60
64115;BME280;62188;35.640;139.748;2022-08-21T11:57:49;100657.43;;;30.23;43.70
64115;BME280;62188;35.640;139.748;2022-08-21T12:00:13;100659.58;;;30.27;43.77
64115;BME280;62188;35.640;139.748;2022-08-21T12:02:36;100656.12;;;30.24;43.74
64115;BME280;62188;35.640;139.748;2022-08-21T12:05:03;100656.33;;;29.94;43.96
64115;BME280;62188;35.640;139.748;2022-08-21T12:07:34;100655.31;;;29.92;44.09
64115;BME280;62188;35.640;139.748;2022-08-21T12:09:55;100654.54;;;30.17;44.42
64115;BME280;62188;35.640;139.748;2022-08-21T12:12:23;100655.12;;;29.96;44.33
64115;BME280;62188;35.640;139.748;2022-08-21T12:14:42;100654.05;;;29.87;44.33
64115;BME280;62188;35.640;139.748;2022-08-21T12:17:07;100654.46;;;30.06;44.45
64115;BME280;62188;35.640;139.748;2022-08-21T12:19:32;100655.70;;;30.01;44.49
64115;BME280;62188;35.640;139.748;2022-08-21T12:22:08;100654.50;;;29.99;44.30
64115;BME280;62188;35.640;139.748;2022-08-21T12:26:51;100654.57;;;29.90;44.24